sensor_id;sensor_type;location;lat;lon;timestamp;temperature;humidity
79187;SHT31;68762;51.980;5.646;2023-07-20T00:02:04;20.8;62.7
79187;SHT31;68762;51.980;5.646;2023-07-20T00:04:34;20.8;62.7
79187;SHT31;68762;51.980;5.646;2023-07-20T00:07:04;20.7;64.0
79187;SHT31;68762;51.980;5.646;2023-07-20T00:09:33;20.7;64.2
79187;SHT31;68762;51.980;5.646;2023-07-20T00:12:02;20.7;63.1
79187;SHT31;68762;51.980;5.646;2023-07-20T00:14:31;20.7;63.6
79187;SHT31;68762;51.980;5.646;2023-07-20T00:17:00;20.6;63.7
79187;SHT31;68762;51.980;5.646;2023-07-20T00:19:30;20.6;63.4
79187;SHT31;68762;51.980;5.646;2023-07-20T00:22:01;20.6;63.6
79187;SHT31;68762;51.980;5.646;2023-07-20T00:24:31;20.6;64.2
79187;SHT31;68762;51.980;5.646;2023-07-20T00:27:01;20.5;63.1
79187;SHT31;68762;51.980;5.646;2023-07-20T00:29:29;20.5;63.8
79187;SHT31;68762;51.980;5.646;2023-07-20T00:31:58;20.5;64.7
79187;SHT31;68762;51.980;5.646;2023-07-20T00:34:27;20.5;64.1
79187;SHT31;68762;51.980;5.646;2023-07-20T00:36:55;20.5;64.3
79187;SHT31;68762;51.980;5.646;2023-07-20T00:39:24;20.4;64.1
79187;SHT31;68762;51.980;5.646;2023-07-20T00:41:52;20.4;64.1
79187;SHT31;68762;51.980;5.646;2023-07-20T00:44:22;20.4;64.0
79187;SHT31;68762;51.980;5.646;2023-07-20T00:46:50;20.4;64.0
79187;SHT31;68762;51.980;5.646;2023-07-20T00:49:19;20.3;63.5
79187;SHT31;68762;51.980;5.646;2023-07-20T00:51:49;20.3;64.2
79187;SHT31;68762;51.980;5.646;2023-07-20T00:54:18;20.3;63.7
79187;SHT31;68762;51.980;5.646;2023-07-20T00:56:47;20.3;64.2
79187;SHT31;68762;51.980;5.646;2023-07-20T00:59:16;20.3;63.9
79187;SHT31;68762;51.980;5.646;2023-07-20T01:01:45;20.3;64.3
79187;SHT31;68762;51.980;5.646;2023-07-20T01:04:14;20.2;64.5
79187;SHT31;68762;51.980;5.646;2023-07-20T01:06:53;20.2;64.7
79187;SHT31;68762;51.980;5.646;2023-07-20T01:09:30;20.2;64.7
79187;SHT31;68762;51.980;5.646;2023-07-20T01:12:07;20.2;64.3
79187;SHT31;68762;51.980;5.646;2023-07-20T01:14:36;20.2;64.0
79187;SHT31;68762;51.980;5.646;2023-07-20T01:17:05;20.2;64.4
79187;SHT31;68762;51.980;5.646;2023-07-20T01:19:36;20.2;63.7
79187;SHT31;68762;51.980;5.646;2023-07-20T01:22:16;20.1;63.6
79187;SHT31;68762;51.980;5.646;2023-07-20T01:25:07;20.1;63.2
79187;SHT31;68762;51.980;5.646;2023-07-20T01:28:03;20.1;64.2
79187;SHT31;68762;51.980;5.646;2023-07-20T01:33:33;20.1;63.5
79187;SHT31;68762;51.980;5.646;2023-07-20T01:36:03;20.1;63.9
79187;SHT31;68762;51.980;5.646;2023-07-20T01:38:33;20.0;63.6
79187;SHT31;68762;51.980;5.646;2023-07-20T01:41:01;20.0;63.5
79187;SHT31;68762;51.980;5.646;2023-07-20T01:43:30;20.0;63.5
79187;SHT31;68762;51.980;5.646;2023-07-20T01:45:59;20.0;63.3
79187;SHT31;68762;51.980;5.646;2023-07-20T01:48:27;20.0;63.5
79187;SHT31;68762;51.980;5.646;2023-07-20T01:50:56;19.9;62.8
79187;SHT31;68762;51.980;5.646;2023-07-20T01:53:25;19.9;63.9
79187;SHT31;68762;51.980;5.646;2023-07-20T01:55:54;19.9;63.8
79187;SHT31;68762;51.980;5.646;2023-07-20T01:58:23;19.9;63.5
79187;SHT31;68762;51.980;5.646;2023-07-20T02:00:52;19.8;63.8
79187;SHT31;68762;51.980;5.646;2023-07-20T02:03:20;19.8;64.1
79187;SHT31;68762;51.980;5.646;2023-07-20T02:05:52;19.8;63.0
79187;SHT31;68762;51.980;5.646;2023-07-20T02:08:21;19.7;63.2
79187;SHT31;68762;51.980;5.646;2023-07-20T02:10:51;19.7;63.4
79187;SHT31;68762;51.980;5.646;2023-07-20T02:13:20;19.7;63.1
79187;SHT31;68762;51.980;5.646;2023-07-20T02:15:48;19.7;64.0
79187;SHT31;68762;51.980;5.646;2023-07-20T02:18:18;19.6;63.6
79187;SHT31;68762;51.980;5.646;2023-07-20T02:20:49;19.6;63.9
79187;SHT31;68762;51.980;5.646;2023-07-20T02:23:18;19.6;63.8
79187;SHT31;68762;51.980;5.646;2023-07-20T02:25:46;19.5;63.8
79187;SHT31;68762;51.980;5.646;2023-07-20T02:28:15;19.5;63.5
79187;SHT31;68762;51.980;5.646;2023-07-20T02:30:43;19.4;62.9
79187;SHT31;68762;51.980;5.646;2023-07-20T02:33:14;19.4;63.4
79187;SHT31;68762;51.980;5.646;2023-07-20T02:35:42;19.3;63.7
79187;SHT31;68762;51.980;5.646;2023-07-20T02:38:11;19.3;63.2
79187;SHT31;68762;51.980;5.646;2023-07-20T02:40:40;19.2;63.0
79187;SHT31;68762;51.980;5.646;2023-07-20T02:43:08;19.2;63.6
79187;SHT31;68762;51.980;5.646;2023-07-20T02:45:42;19.2;63.6
79187;SHT31;68762;51.980;5.646;2023-07-20T02:48:10;19.1;63.7
79187;SHT31;68762;51.980;5.646;2023-07-20T02:50:39;19.1;63.9
79187;SHT31;68762;51.980;5.646;2023-07-20T02:53:08;19.1;64.1
79187;SHT31;68762;51.980;5.646;2023-07-20T02:55:37;19.1;64.9
79187;SHT31;68762;51.980;5.646;2023-07-20T02:58:06;19.0;65.3
79187;SHT31;68762;51.980;5.646;2023-07-20T03:00:34;19.0;65.6
79187;SHT31;68762;51.980;5.646;2023-07-20T03:03:03;19.0;65.2
79187;SHT31;68762;51.980;5.646;2023-07-20T03:05:36;19.0;65.3
79187;SHT31;68762;51.980;5.646;2023-07-20T03:08:07;19.0;65.2
79187;SHT31;68762;51.980;5.646;2023-07-20T03:10:40;18.9;65.1
79187;SHT31;68762;51.980;5.646;2023-07-20T03:13:09;18.9;65.2
79187;SHT31;68762;51.980;5.646;2023-07-20T03:15:37;18.9;65.0
79187;SHT31;68762;51.980;5.646;2023-07-20T03:18:06;18.8;65.5
79187;SHT31;68762;51.980;5.646;2023-07-20T03:20:35;18.8;65.7
79187;SHT31;68762;51.980;5.646;2023-07-20T03:23:04;18.8;65.6
79187;SHT31;68762;51.980;5.646;2023-07-20T03:25:33;18.7;65.4
79187;SHT31;68762;51.980;5.646;2023-07-20T03:28:04;18.7;64.9
79187;SHT31;68762;51.980;5.646;2023-07-20T03:30:33;18.6;64.9
79187;SHT31;68762;51.980;5.646;2023-07-20T03:33:01;18.6;65.2
79187;SHT31;68762;51.980;5.646;2023-07-20T03:35:30;18.6;65.0
79187;SHT31;68762;51.980;5.646;2023-07-20T03:37:58;18.5;65.1
79187;SHT31;68762;51.980;5.646;2023-07-20T03:40:27;18.5;65.0
79187;SHT31;68762;51.980;5.646;2023-07-20T03:42:55;18.5;65.4
79187;SHT31;68762;51.980;5.646;2023-07-20T03:45:26;18.5;65.1
79187;SHT31;68762;51.980;5.646;2023-07-20T03:47:54;18.4;65.2
79187;SHT31;68762;51.980;5.646;2023-07-20T03:50:23;18.4;65.4
79187;SHT31;68762;51.980;5.646;2023-07-20T03:52:51;18.4;65.1
79187;SHT31;68762;51.980;5.646;2023-07-20T03:55:20;18.3;65.2
79187;SHT31;68762;51.980;5.646;2023-07-20T03:57:48;18.3;65.3
79187;SHT31;68762;51.980;5.646;2023-07-20T04:00:17;18.3;64.8
79187;SHT31;68762;51.980;5.646;2023-07-20T04:02:48;18.3;65.4
79187;SHT31;68762;51.980;5.646;2023-07-20T04:05:19;18.2;65.3
79187;SHT31;68762;51.980;5.646;2023-07-20T04:07:48;18.2;65.3
79187;SHT31;68762;51.980;5.646;2023-07-20T04:10:17;18.2;65.4
79187;SHT31;68762;51.980;5.646;2023-07-20T04:12:46;18.2;66.2
79187;SHT31;68762;51.980;5.646;2023-07-20T04:15:15;18.2;66.4
79187;SHT31;68762;51.980;5.646;2023-07-20T04:17:45;18.2;66.6
79187;SHT31;68762;51.980;5.646;2023-07-20T04:20:13;18.2;65.7
79187;SHT31;68762;51.980;5.646;2023-07-20T04:22:44;18.1;66.9
79187;SHT31;68762;51.980;5.646;2023-07-20T04:25:13;18.1;67.1
79187;SHT31;68762;51.980;5.646;2023-07-20T04:27:43;18.1;67.5
79187;SHT31;68762;51.980;5.646;2023-07-20T04:30:13;18.1;66.9
79187;SHT31;68762;51.980;5.646;2023-07-20T04:32:42;18.1;67.7
79187;SHT31;68762;51.980;5.646;2023-07-20T04:35:21;18.0;66.9
79187;SHT31;68762;51.980;5.646;2023-07-20T04:37:53;18.0;67.7
79187;SHT31;68762;51.980;5.646;2023-07-20T04:40:21;18.0;67.9
79187;SHT31;68762;51.980;5.646;2023-07-20T04:42:50;18.0;67.7
79187;SHT31;68762;51.980;5.646;2023-07-20T04:45:18;18.0;68.1
79187;SHT31;68762;51.980;5.646;2023-07-20T04:47:52;18.0;68.4
79187;SHT31;68762;51.980;5.646;2023-07-20T04:50:20;18.0;68.2
79187;SHT31;68762;51.980;5.646;2023-07-20T04:52:51;18.0;67.9
79187;SHT31;68762;51.980;5.646;2023-07-20T04:55:20;18.0;68.5
79187;SHT31;68762;51.980;5.646;2023-07-20T04:57:48;18.0;68.2
79187;SHT31;68762;51.980;5.646;2023-07-20T05:00:17;18.1;69.1
79187;SHT31;68762;51.980;5.646;2023-07-20T05:02:48;18.1;69.2
79187;SHT31;68762;51.980;5.646;2023-07-20T05:05:16;18.1;69.0
79187;SHT31;68762;51.980;5.646;2023-07-20T05:07:45;18.1;68.6
79187;SHT31;68762;51.980;5.646;2023-07-20T05:10:13;18.1;69.2
79187;SHT31;68762;51.980;5.646;2023-07-20T05:12:42;18.1;69.7
79187;SHT31;68762;51.980;5.646;2023-07-20T05:15:11;18.1;68.9
79187;SHT31;68762;51.980;5.646;2023-07-20T05:17:40;18.1;68.9
79187;SHT31;68762;51.980;5.646;2023-07-20T05:20:09;18.1;69.6
79187;SHT31;68762;51.980;5.646;2023-07-20T05:22:38;18.2;70.1
79187;SHT31;68762;51.980;5.646;2023-07-20T05:25:10;18.2;69.3
79187;SHT31;68762;51.980;5.646;2023-07-20T05:27:39;18.2;70.2
79187;SHT31;68762;51.980;5.646;2023-07-20T05:30:09;18.3;70.5
79187;SHT31;68762;51.980;5.646;2023-07-20T05:32:37;18.3;70.3
79187;SHT31;68762;51.980;5.646;2023-07-20T05:35:07;18.3;69.2
79187;SHT31;68762;51.980;5.646;2023-07-20T05:37:38;18.3;70.1
79187;SHT31;68762;51.980;5.646;2023-07-20T05:40:07;18.3;70.0
79187;SHT31;68762;51.980;5.646;2023-07-20T05:42:38;18.3;70.1
79187;SHT31;68762;51.980;5.646;2023-07-20T05:45:07;18.3;70.1
79187;SHT31;68762;51.980;5.646;2023-07-20T05:47:36;18.3;70.1
79187;SHT31;68762;51.980;5.646;2023-07-20T05:50:05;18.3;71.0
79187;SHT31;68762;51.980;5.646;2023-07-20T05:52:35;18.3;70.4
79187;SHT31;68762;51.980;5.646;2023-07-20T05:55:06;18.3;69.9
79187;SHT31;68762;51.980;5.646;2023-07-20T05:57:35;18.3;70.4
79187;SHT31;68762;51.980;5.646;2023-07-20T06:00:09;18.3;69.8
79187;SHT31;68762;51.980;5.646;2023-07-20T06:02:39;18.3;69.8
79187;SHT31;68762;51.980;5.646;2023-07-20T06:05:09;18.4;69.5
79187;SHT31;68762;51.980;5.646;2023-07-20T06:07:38;18.4;69.0
79187;SHT31;68762;51.980;5.646;2023-07-20T06:10:07;18.4;69.4
79187;SHT31;68762;51.980;5.646;2023-07-20T06:12:36;18.4;70.8
79187;SHT31;68762;51.980;5.646;2023-07-20T06:15:05;18.4;70.6
79187;SHT31;68762;51.980;5.646;2023-07-20T06:17:34;18.5;70.6
79187;SHT31;68762;51.980;5.646;2023-07-20T06:20:04;18.5;70.2
79187;SHT31;68762;51.980;5.646;2023-07-20T06:22:33;18.5;69.9
79187;SHT31;68762;51.980;5.646;2023-07-20T06:25:02;18.6;69.2
79187;SHT31;68762;51.980;5.646;2023-07-20T06:27:31;18.6;67.9
79187;SHT31;68762;51.980;5.646;2023-07-20T06:30:00;18.6;69.0
79187;SHT31;68762;51.980;5.646;2023-07-20T06:32:28;18.7;67.9
79187;SHT31;68762;51.980;5.646;2023-07-20T06:34:59;18.7;69.6
79187;SHT31;68762;51.980;5.646;2023-07-20T06:37:27;18.7;68.8
79187;SHT31;68762;51.980;5.646;2023-07-20T06:39:56;18.8;69.2
79187;SHT31;68762;51.980;5.646;2023-07-20T06:42:25;18.8;67.4
79187;SHT31;68762;51.980;5.646;2023-07-20T06:44:53;18.9;66.0
79187;SHT31;68762;51.980;5.646;2023-07-20T06:47:22;18.9;67.6
79187;SHT31;68762;51.980;5.646;2023-07-20T06:49:50;19.0;66.5
79187;SHT31;68762;51.980;5.646;2023-07-20T06:52:19;19.0;65.4
79187;SHT31;68762;51.980;5.646;2023-07-20T06:54:48;19.1;64.9
79187;SHT31;68762;51.980;5.646;2023-07-20T06:57:16;19.2;65.7
79187;SHT31;68762;51.980;5.646;2023-07-20T06:59:45;19.2;63.2
79187;SHT31;68762;51.980;5.646;2023-07-20T07:02:13;19.3;64.2
79187;SHT31;68762;51.980;5.646;2023-07-20T07:04:42;19.3;64.9
79187;SHT31;68762;51.980;5.646;2023-07-20T07:07:12;19.4;64.1
79187;SHT31;68762;51.980;5.646;2023-07-20T07:09:40;19.4;63.2
79187;SHT31;68762;51.980;5.646;2023-07-20T07:12:09;19.5;64.0
79187;SHT31;68762;51.980;5.646;2023-07-20T07:14:38;19.5;64.1
79187;SHT31;68762;51.980;5.646;2023-07-20T07:17:08;19.6;63.4
79187;SHT31;68762;51.980;5.646;2023-07-20T07:19:37;19.6;63.1
79187;SHT31;68762;51.980;5.646;2023-07-20T07:22:07;19.7;61.8
79187;SHT31;68762;51.980;5.646;2023-07-20T07:24:36;19.7;63.6
79187;SHT31;68762;51.980;5.646;2023-07-20T07:27:05;19.8;63.1
79187;SHT31;68762;51.980;5.646;2023-07-20T07:29:33;19.9;61.7
79187;SHT31;68762;51.980;5.646;2023-07-20T07:32:02;19.9;60.8
79187;SHT31;68762;51.980;5.646;2023-07-20T07:34:31;20.0;61.7
79187;SHT31;68762;51.980;5.646;2023-07-20T07:37:01;20.0;59.8
79187;SHT31;68762;51.980;5.646;2023-07-20T07:39:29;20.1;60.8
79187;SHT31;68762;51.980;5.646;2023-07-20T07:41:58;20.1;61.5
79187;SHT31;68762;51.980;5.646;2023-07-20T07:44:26;20.2;62.7
79187;SHT31;68762;51.980;5.646;2023-07-20T07:46:57;20.3;60.5
79187;SHT31;68762;51.980;5.646;2023-07-20T07:49:26;20.4;60.6
79187;SHT31;68762;51.980;5.646;2023-07-20T07:51:55;20.5;59.2
79187;SHT31;68762;51.980;5.646;2023-07-20T07:54:24;20.6;59.9
79187;SHT31;68762;51.980;5.646;2023-07-20T07:56:52;20.7;58.2
79187;SHT31;68762;51.980;5.646;2023-07-20T07:59:21;20.8;55.7
79187;SHT31;68762;51.980;5.646;2023-07-20T08:01:49;20.9;57.6
79187;SHT31;68762;51.980;5.646;2023-07-20T08:04:19;21.0;60.1
79187;SHT31;68762;51.980;5.646;2023-07-20T08:06:47;21.1;57.8
79187;SHT31;68762;51.980;5.646;2023-07-20T08:09:16;21.2;58.8
79187;SHT31;68762;51.980;5.646;2023-07-20T08:11:45;21.3;57.9
79187;SHT31;68762;51.980;5.646;2023-07-20T08:14:14;21.4;55.2
79187;SHT31;68762;51.980;5.646;2023-07-20T08:16:44;21.5;56.9
79187;SHT31;68762;51.980;5.646;2023-07-20T08:19:13;21.6;56.3
79187;SHT31;68762;51.980;5.646;2023-07-20T08:21:42;21.7;54.5
79187;SHT31;68762;51.980;5.646;2023-07-20T08:24:10;21.7;53.2
79187;SHT31;68762;51.980;5.646;2023-07-20T08:26:40;21.8;54.9
79187;SHT31;68762;51.980;5.646;2023-07-20T08:29:09;21.8;53.6
79187;SHT31;68762;51.980;5.646;2023-07-20T08:31:37;21.8;52.6
79187;SHT31;68762;51.980;5.646;2023-07-20T08:34:06;21.8;52.8
79187;SHT31;68762;51.980;5.646;2023-07-20T08:36:35;21.8;52.8
79187;SHT31;68762;51.980;5.646;2023-07-20T08:39:04;21.7;53.2
79187;SHT31;68762;51.980;5.646;2023-07-20T08:41:34;21.7;51.9
79187;SHT31;68762;51.980;5.646;2023-07-20T08:44:04;21.6;53.7
79187;SHT31;68762;51.980;5.646;2023-07-20T08:46:37;21.6;52.5
79187;SHT31;68762;51.980;5.646;2023-07-20T08:49:06;21.6;53.3
79187;SHT31;68762;51.980;5.646;2023-07-20T08:51:35;21.6;51.5
79187;SHT31;68762;51.980;5.646;2023-07-20T08:54:04;21.6;52.3
79187;SHT31;68762;51.980;5.646;2023-07-20T08:56:34;21.6;52.2
79187;SHT31;68762;51.980;5.646;2023-07-20T08:59:03;21.6;52.5
79187;SHT31;68762;51.980;5.646;2023-07-20T09:01:34;21.6;52.1
79187;SHT31;68762;51.980;5.646;2023-07-20T09:04:03;21.6;53.4
79187;SHT31;68762;51.980;5.646;2023-07-20T09:06:32;21.7;52.0
79187;SHT31;68762;51.980;5.646;2023-07-20T09:09:01;21.7;52.0
79187;SHT31;68762;51.980;5.646;2023-07-20T09:11:30;21.8;52.8
79187;SHT31;68762;51.980;5.646;2023-07-20T09:14:06;21.9;53.5
79187;SHT31;68762;51.980;5.646;2023-07-20T09:16:49;22.0;53.3
79187;SHT31;68762;51.980;5.646;2023-07-20T09:19:18;22.0;52.8
79187;SHT31;68762;51.980;5.646;2023-07-20T09:21:48;22.1;52.7
79187;SHT31;68762;51.980;5.646;2023-07-20T09:24:19;22.1;50.7
79187;SHT31;68762;51.980;5.646;2023-07-20T09:26:48;22.1;50.2
79187;SHT31;68762;51.980;5.646;2023-07-20T09:29:19;22.2;49.8
79187;SHT31;68762;51.980;5.646;2023-07-20T09:32:01;22.2;50.5
79187;SHT31;68762;51.980;5.646;2023-07-20T09:34:30;22.2;49.5
79187;SHT31;68762;51.980;5.646;2023-07-20T09:37:00;22.3;51.0
79187;SHT31;68762;51.980;5.646;2023-07-20T09:39:29;22.4;50.3
79187;SHT31;68762;51.980;5.646;2023-07-20T09:42:00;22.5;52.0
79187;SHT31;68762;51.980;5.646;2023-07-20T09:44:29;22.6;51.2
79187;SHT31;68762;51.980;5.646;2023-07-20T09:47:02;22.7;50.5
79187;SHT31;68762;51.980;5.646;2023-07-20T09:49:31;22.7;51.5
79187;SHT31;68762;51.980;5.646;2023-07-20T09:52:01;22.8;49.6
79187;SHT31;68762;51.980;5.646;2023-07-20T09:54:33;22.8;48.8
79187;SHT31;68762;51.980;5.646;2023-07-20T09:57:02;22.9;47.8
79187;SHT31;68762;51.980;5.646;2023-07-20T09:59:31;22.9;47.6
79187;SHT31;68762;51.980;5.646;2023-07-20T10:02:02;22.9;48.9
79187;SHT31;68762;51.980;5.646;2023-07-20T10:04:34;22.9;48.5
79187;SHT31;68762;51.980;5.646;2023-07-20T10:07:11;22.9;47.4
79187;SHT31;68762;51.980;5.646;2023-07-20T10:09:41;22.9;47.3
79187;SHT31;68762;51.980;5.646;2023-07-20T10:12:11;22.9;49.0
79187;SHT31;68762;51.980;5.646;2023-07-20T10:14:47;22.9;49.2
79187;SHT31;68762;51.980;5.646;2023-07-20T10:17:20;22.9;50.7
79187;SHT31;68762;51.980;5.646;2023-07-20T10:19:51;22.9;49.7
79187;SHT31;68762;51.980;5.646;2023-07-20T10:22:26;22.9;49.5
79187;SHT31;68762;51.980;5.646;2023-07-20T10:24:54;23.0;47.2
79187;SHT31;68762;51.980;5.646;2023-07-20T10:27:28;23.0;48.2
79187;SHT31;68762;51.980;5.646;2023-07-20T10:29:57;23.1;50.0
79187;SHT31;68762;51.980;5.646;2023-07-20T10:32:28;23.2;49.5
79187;SHT31;68762;51.980;5.646;2023-07-20T10:34:57;23.3;50.6
79187;SHT31;68762;51.980;5.646;2023-07-20T10:37:51;23.4;46.0
79187;SHT31;68762;51.980;5.646;2023-07-20T10:40:31;23.4;49.4
79187;SHT31;68762;51.980;5.646;2023-07-20T10:43:07;23.5;46.9
79187;SHT31;68762;51.980;5.646;2023-07-20T10:45:40;23.5;46.3
79187;SHT31;68762;51.980;5.646;2023-07-20T10:48:16;23.5;49.4
79187;SHT31;68762;51.980;5.646;2023-07-20T10:51:56;23.5;47.6
79187;SHT31;68762;51.980;5.646;2023-07-20T10:54:50;23.6;44.9
79187;SHT31;68762;51.980;5.646;2023-07-20T10:57:30;23.7;44.0
79187;SHT31;68762;51.980;5.646;2023-07-20T11:00:12;23.8;43.7
79187;SHT31;68762;51.980;5.646;2023-07-20T11:02:46;23.8;44.2
79187;SHT31;68762;51.980;5.646;2023-07-20T11:05:36;23.8;45.1
79187;SHT31;68762;51.980;5.646;2023-07-20T11:08:10;23.8;45.1
79187;SHT31;68762;51.980;5.646;2023-07-20T11:10:40;23.8;44.8
79187;SHT31;68762;51.980;5.646;2023-07-20T11:13:19;23.8;43.9
79187;SHT31;68762;51.980;5.646;2023-07-20T11:16:04;23.7;47.7
79187;SHT31;68762;51.980;5.646;2023-07-20T11:18:35;23.7;44.9
79187;SHT31;68762;51.980;5.646;2023-07-20T11:21:09;23.8;44.3
79187;SHT31;68762;51.980;5.646;2023-07-20T11:23:39;23.8;43.8
79187;SHT31;68762;51.980;5.646;2023-07-20T11:26:08;23.9;46.3
79187;SHT31;68762;51.980;5.646;2023-07-20T11:28:38;23.9;44.9
79187;SHT31;68762;51.980;5.646;2023-07-20T11:31:07;24.0;42.5
79187;SHT31;68762;51.980;5.646;2023-07-20T11:33:36;24.1;41.2
79187;SHT31;68762;51.980;5.646;2023-07-20T11:36:05;24.1;40.3
79187;SHT31;68762;51.980;5.646;2023-07-20T11:38:36;24.1;41.2
79187;SHT31;68762;51.980;5.646;2023-07-20T11:41:04;24.2;42.9
79187;SHT31;68762;51.980;5.646;2023-07-20T11:43:33;24.2;42.9
79187;SHT31;68762;51.980;5.646;2023-07-20T11:46:04;24.3;41.4
79187;SHT31;68762;51.980;5.646;2023-07-20T11:48:33;24.3;42.9
79187;SHT31;68762;51.980;5.646;2023-07-20T11:51:01;24.4;42.2
79187;SHT31;68762;51.980;5.646;2023-07-20T11:53:30;24.4;42.2
79187;SHT31;68762;51.980;5.646;2023-07-20T11:55:59;24.5;41.2
79187;SHT31;68762;51.980;5.646;2023-07-20T11:58:28;24.6;41.2
79187;SHT31;68762;51.980;5.646;2023-07-20T12:00:59;24.6;42.4
79187;SHT31;68762;51.980;5.646;2023-07-20T12:03:28;24.7;42.1
79187;SHT31;68762;51.980;5.646;2023-07-20T12:06:08;24.8;41.3
79187;SHT31;68762;51.980;5.646;2023-07-20T12:08:38;24.9;40.2
79187;SHT31;68762;51.980;5.646;2023-07-20T12:11:07;24.9;39.5
79187;SHT31;68762;51.980;5.646;2023-07-20T12:13:42;25.0;38.4
79187;SHT31;68762;51.980;5.646;2023-07-20T12:16:11;25.0;40.2
79187;SHT31;68762;51.980;5.646;2023-07-20T12:18:41;25.1;40.5
79187;SHT31;68762;51.980;5.646;2023-07-20T12:21:11;25.1;41.6
79187;SHT31;68762;51.980;5.646;2023-07-20T12:23:41;25.2;42.9
79187;SHT31;68762;51.980;5.646;2023-07-20T12:26:10;25.3;39.6
79187;SHT31;68762;51.980;5.646;2023-07-20T12:28:42;25.3;40.5
79187;SHT31;68762;51.980;5.646;2023-07-20T12:31:11;25.4;41.2
79187;SHT31;68762;51.980;5.646;2023-07-20T12:33:39;25.5;39.8
79187;SHT31;68762;51.980;5.646;2023-07-20T12:36:08;25.5;40.1
79187;SHT31;68762;51.980;5.646;2023-07-20T12:38:37;25.6;39.2
79187;SHT31;68762;51.980;5.646;2023-07-20T12:41:06;25.6;37.7
79187;SHT31;68762;51.980;5.646;2023-07-20T12:43:34;25.6;39.8
79187;SHT31;68762;51.980;5.646;2023-07-20T12:46:05;25.6;38.5
79187;SHT31;68762;51.980;5.646;2023-07-20T12:48:35;25.7;39.3
79187;SHT31;68762;51.980;5.646;2023-07-20T12:51:07;25.7;38.5
79187;SHT31;68762;51.980;5.646;2023-07-20T12:53:36;25.7;39.5
79187;SHT31;68762;51.980;5.646;2023-07-20T12:56:05;25.8;40.3
79187;SHT31;68762;51.980;5.646;2023-07-20T12:58:36;25.8;38.4
79187;SHT31;68762;51.980;5.646;2023-07-20T13:01:05;25.8;37.6
79187;SHT31;68762;51.980;5.646;2023-07-20T13:03:33;25.9;39.7
79187;SHT31;68762;51.980;5.646;2023-07-20T13:06:02;25.9;40.6
79187;SHT31;68762;51.980;5.646;2023-07-20T13:08:31;25.9;40.1
79187;SHT31;68762;51.980;5.646;2023-07-20T13:10:59;26.0;41.8
79187;SHT31;68762;51.980;5.646;2023-07-20T13:13:29;26.0;42.0
79187;SHT31;68762;51.980;5.646;2023-07-20T13:15:58;26.1;38.2
79187;SHT31;68762;51.980;5.646;2023-07-20T13:18:26;26.1;41.9
79187;SHT31;68762;51.980;5.646;2023-07-20T13:20:55;26.2;42.2
79187;SHT31;68762;51.980;5.646;2023-07-20T13:23:24;26.3;36.5
79187;SHT31;68762;51.980;5.646;2023-07-20T13:25:53;26.4;36.3
79187;SHT31;68762;51.980;5.646;2023-07-20T13:28:21;26.4;38.7
79187;SHT31;68762;51.980;5.646;2023-07-20T13:30:50;26.4;37.9
79187;SHT31;68762;51.980;5.646;2023-07-20T13:33:18;26.4;35.1
79187;SHT31;68762;51.980;5.646;2023-07-20T13:35:47;26.3;37.3
79187;SHT31;68762;51.980;5.646;2023-07-20T13:38:17;26.3;37.7
79187;SHT31;68762;51.980;5.646;2023-07-20T13:40:46;26.3;40.0
79187;SHT31;68762;51.980;5.646;2023-07-20T13:43:15;26.2;37.3
79187;SHT31;68762;51.980;5.646;2023-07-20T13:45:44;26.2;36.9
79187;SHT31;68762;51.980;5.646;2023-07-20T13:48:14;26.2;37.2
79187;SHT31;68762;51.980;5.646;2023-07-20T13:50:46;26.1;36.8
79187;SHT31;68762;51.980;5.646;2023-07-20T13:53:14;26.1;39.0
79187;SHT31;68762;51.980;5.646;2023-07-20T13:55:44;26.1;39.9
79187;SHT31;68762;51.980;5.646;2023-07-20T13:58:13;26.1;42.9
79187;SHT31;68762;51.980;5.646;2023-07-20T14:00:41;26.2;38.0
79187;SHT31;68762;51.980;5.646;2023-07-20T14:03:10;26.3;39.6
79187;SHT31;68762;51.980;5.646;2023-07-20T14:05:39;26.3;38.9
79187;SHT31;68762;51.980;5.646;2023-07-20T14:08:08;26.4;38.1
79187;SHT31;68762;51.980;5.646;2023-07-20T14:10:36;26.5;37.0
79187;SHT31;68762;51.980;5.646;2023-07-20T14:13:05;26.5;39.7
79187;SHT31;68762;51.980;5.646;2023-07-20T14:15:35;26.5;39.3
79187;SHT31;68762;51.980;5.646;2023-07-20T14:18:03;26.5;36.8
79187;SHT31;68762;51.980;5.646;2023-07-20T14:20:32;26.5;37.2
79187;SHT31;68762;51.980;5.646;2023-07-20T14:23:01;26.5;36.5
79187;SHT31;68762;51.980;5.646;2023-07-20T14:25:30;26.5;38.6
79187;SHT31;68762;51.980;5.646;2023-07-20T14:27:59;26.5;37.2
79187;SHT31;68762;51.980;5.646;2023-07-20T14:30:27;26.5;37.4
79187;SHT31;68762;51.980;5.646;2023-07-20T14:32:56;26.4;39.3
79187;SHT31;68762;51.980;5.646;2023-07-20T14:35:26;26.4;41.1
79187;SHT31;68762;51.980;5.646;2023-07-20T14:37:54;26.4;38.3
79187;SHT31;68762;51.980;5.646;2023-07-20T14:40:23;26.4;37.3
79187;SHT31;68762;51.980;5.646;2023-07-20T14:42:54;26.5;37.0
79187;SHT31;68762;51.980;5.646;2023-07-20T14:45:23;26.5;37.1
79187;SHT31;68762;51.980;5.646;2023-07-20T14:47:51;26.5;36.3
79187;SHT31;68762;51.980;5.646;2023-07-20T14:50:20;26.5;36.5
79187;SHT31;68762;51.980;5.646;2023-07-20T14:52:49;26.5;36.9
79187;SHT31;68762;51.980;5.646;2023-07-20T14:55:20;26.5;35.7
79187;SHT31;68762;51.980;5.646;2023-07-20T14:57:49;26.5;38.4
79187;SHT31;68762;51.980;5.646;2023-07-20T15:00:18;26.5;39.7
79187;SHT31;68762;51.980;5.646;2023-07-20T15:02:47;26.5;36.6
79187;SHT31;68762;51.980;5.646;2023-07-20T15:05:22;26.6;37.2
79187;SHT31;68762;51.980;5.646;2023-07-20T15:07:53;26.6;37.9
79187;SHT31;68762;51.980;5.646;2023-07-20T15:10:22;26.6;38.6
79187;SHT31;68762;51.980;5.646;2023-07-20T15:12:51;26.6;39.0
79187;SHT31;68762;51.980;5.646;2023-07-20T15:15:19;26.6;40.3
79187;SHT31;68762;51.980;5.646;2023-07-20T15:17:48;26.6;37.5
79187;SHT31;68762;51.980;5.646;2023-07-20T15:20:17;26.7;37.0
79187;SHT31;68762;51.980;5.646;2023-07-20T15:22:46;26.7;35.7
79187;SHT31;68762;51.980;5.646;2023-07-20T15:25:14;26.7;36.3
79187;SHT31;68762;51.980;5.646;2023-07-20T15:27:43;26.6;35.1
79187;SHT31;68762;51.980;5.646;2023-07-20T15:30:12;26.6;34.4
79187;SHT31;68762;51.980;5.646;2023-07-20T15:32:43;26.6;33.9
79187;SHT31;68762;51.980;5.646;2023-07-20T15:35:11;26.5;34.4
79187;SHT31;68762;51.980;5.646;2023-07-20T15:37:40;26.5;34.5
79187;SHT31;68762;51.980;5.646;2023-07-20T15:40:09;26.4;36.6
79187;SHT31;68762;51.980;5.646;2023-07-20T15:42:38;26.4;35.6
79187;SHT31;68762;51.980;5.646;2023-07-20T15:45:08;26.3;35.9
79187;SHT31;68762;51.980;5.646;2023-07-20T15:47:37;26.3;35.0
79187;SHT31;68762;51.980;5.646;2023-07-20T15:50:06;26.2;34.8
79187;SHT31;68762;51.980;5.646;2023-07-20T15:52:34;26.2;34.9
79187;SHT31;68762;51.980;5.646;2023-07-20T15:55:03;26.1;33.4
79187;SHT31;68762;51.980;5.646;2023-07-20T15:57:32;26.1;33.7
79187;SHT31;68762;51.980;5.646;2023-07-20T16:00:01;26.0;34.2
79187;SHT31;68762;51.980;5.646;2023-07-20T16:02:30;26.0;35.1
79187;SHT31;68762;51.980;5.646;2023-07-20T16:04:59;25.9;36.0
79187;SHT31;68762;51.980;5.646;2023-07-20T16:07:28;25.9;36.6
79187;SHT31;68762;51.980;5.646;2023-07-20T16:09:57;25.8;36.7
79187;SHT31;68762;51.980;5.646;2023-07-20T16:12:27;25.8;36.0
79187;SHT31;68762;51.980;5.646;2023-07-20T16:14:58;25.7;36.7
79187;SHT31;68762;51.980;5.646;2023-07-20T16:17:28;25.7;36.7
79187;SHT31;68762;51.980;5.646;2023-07-20T16:19:57;25.6;36.5
79187;SHT31;68762;51.980;5.646;2023-07-20T16:22:26;25.6;36.2
79187;SHT31;68762;51.980;5.646;2023-07-20T16:24:55;25.5;37.7